Pagrindinis puslapis
METAR-TAF:

METAR-TAF

Oro uostai :

Elatas, Izraelis

platuma: 29-43-25N, ilguma: 35-00-41E, Aukštis: 88 m

METAR: trūkstamas

Laikas: 03:32 (00:32 UTC)

Prognozė

Ataskaita buvo paskelbta 13 valandos ir 26 minutes, ne 11:06 UTC
Prognozė galioja nuo 08 metu 12 UTC su 09 metu 12 UTC
Vėjas 12 kt iš Šiaurės
Matomumas 10 km arba daugiau
nėra debesų žemiau 1500 m ir nėra kamuolinių lietaus debesų
Tikimybė 30%
nuo 08 metu 15 UTC su 08 metu 18 UTC
Vėjas 18 kt iš Šiaurės/Šiaurės Rytų

TAF: LLER 081106Z 0812/0912 01012KT CAVOK PROB30 0815/0818 02018KT TX26/0812Z TN14/0903Z

Orai ataskaitas ir orų prognozės (METAR, TAF).

turimą stotys yra geltonos ir raudonos taškus žemėlapyje.

Perkelti pele per norėdami pamatyti stoties vardą.

Tada spustelėkite, norėdami matyti oro stebėjimo ir prognozės.

Norėdami pakeisti žemėlapį: spustelėkite ant žalios mygtukų su juodo kryžiaus žemyn,; žalią mygtuką su brūkšneliu, jei norite nutolinti; arba žalių rodyklių gretimoms žemėlapius.


METAR-TAF: